sensor_id;sensor_type;location;lat;lon;timestamp;P1;durP1;ratioP1;P2;durP2;ratioP2
1682;SDS011;13252;53.596;10.060;2022-08-03T00:02:16;6.70;;;4.77;;
1682;SDS011;13252;53.596;10.060;2022-08-03T00:04:44;7.60;;;4.93;;
1682;SDS011;13252;53.596;10.060;2022-08-03T00:07:12;6.93;;;4.57;;
1682;SDS011;13252;53.596;10.060;2022-08-03T00:09:39;8.03;;;4.80;;
1682;SDS011;13252;53.596;10.060;2022-08-03T00:12:07;8.00;;;5.20;;
1682;SDS011;13252;53.596;10.060;2022-08-03T00:14:35;6.60;;;5.47;;
1682;SDS011;13252;53.596;10.060;2022-08-03T00:17:04;7.90;;;5.37;;
1682;SDS011;13252;53.596;10.060;2022-08-03T00:19:32;10.67;;;5.50;;
1682;SDS011;13252;53.596;10.060;2022-08-03T00:21:59;6.07;;;4.97;;
1682;SDS011;13252;53.596;10.060;2022-08-03T00:24:27;7.77;;;4.90;;
1682;SDS011;13252;53.596;10.060;2022-08-03T00:26:56;6.70;;;4.77;;
1682;SDS011;13252;53.596;10.060;2022-08-03T00:29:23;7.23;;;5.47;;
1682;SDS011;13252;53.596;10.060;2022-08-03T00:31:51;7.77;;;5.17;;
1682;SDS011;13252;53.596;10.060;2022-08-03T00:34:27;6.43;;;5.17;;
1682;SDS011;13252;53.596;10.060;2022-08-03T00:37:15;9.40;;;5.80;;
1682;SDS011;13252;53.596;10.060;2022-08-03T00:39:42;7.60;;;5.57;;
1682;SDS011;13252;53.596;10.060;2022-08-03T00:42:12;7.47;;;5.20;;
1682;SDS011;13252;53.596;10.060;2022-08-03T00:44:40;11.23;;;5.00;;
1682;SDS011;13252;53.596;10.060;2022-08-03T00:47:09;7.40;;;4.60;;
1682;SDS011;13252;53.596;10.060;2022-08-03T00:49:39;8.63;;;5.17;;
1682;SDS011;13252;53.596;10.060;2022-08-03T00:52:07;10.27;;;5.53;;
1682;SDS011;13252;53.596;10.060;2022-08-03T00:54:36;6.20;;;4.70;;
1682;SDS011;13252;53.596;10.060;2022-08-03T00:57:04;7.00;;;5.03;;
1682;SDS011;13252;53.596;10.060;2022-08-03T00:59:32;7.40;;;5.27;;
1682;SDS011;13252;53.596;10.060;2022-08-03T01:01:59;7.20;;;4.40;;
1682;SDS011;13252;53.596;10.060;2022-08-03T01:04:27;7.57;;;6.00;;
1682;SDS011;13252;53.596;10.060;2022-08-03T01:06:57;6.73;;;5.23;;
1682;SDS011;13252;53.596;10.060;2022-08-03T01:09:31;6.90;;;4.77;;
1682;SDS011;13252;53.596;10.060;2022-08-03T01:12:07;12.07;;;5.60;;
1682;SDS011;13252;53.596;10.060;2022-08-03T01:14:37;8.60;;;5.70;;
1682;SDS011;13252;53.596;10.060;2022-08-03T01:17:09;6.23;;;5.30;;
1682;SDS011;13252;53.596;10.060;2022-08-03T01:19:44;9.23;;;5.37;;
1682;SDS011;13252;53.596;10.060;2022-08-03T01:22:22;8.23;;;5.70;;
1682;SDS011;13252;53.596;10.060;2022-08-03T01:25:02;9.93;;;6.00;;
1682;SDS011;13252;53.596;10.060;2022-08-03T01:27:42;13.23;;;5.47;;
1682;SDS011;13252;53.596;10.060;2022-08-03T01:30:19;6.63;;;5.80;;
1682;SDS011;13252;53.596;10.060;2022-08-03T01:32:51;6.77;;;5.57;;
1682;SDS011;13252;53.596;10.060;2022-08-03T01:35:28;7.70;;;5.60;;
1682;SDS011;13252;53.596;10.060;2022-08-03T01:38:04;6.83;;;5.57;;
1682;SDS011;13252;53.596;10.060;2022-08-03T01:40:35;9.03;;;5.60;;
1682;SDS011;13252;53.596;10.060;2022-08-03T01:43:06;8.03;;;5.10;;
1682;SDS011;13252;53.596;10.060;2022-08-03T01:45:37;8.57;;;5.83;;
1682;SDS011;13252;53.596;10.060;2022-08-03T01:48:06;6.03;;;4.90;;
1682;SDS011;13252;53.596;10.060;2022-08-03T01:50:34;5.90;;;5.07;;
1682;SDS011;13252;53.596;10.060;2022-08-03T01:53:02;6.47;;;5.00;;
1682;SDS011;13252;53.596;10.060;2022-08-03T01:55:30;6.87;;;5.50;;
1682;SDS011;13252;53.596;10.060;2022-08-03T01:57:59;6.63;;;5.30;;
1682;SDS011;13252;53.596;10.060;2022-08-03T02:00:31;8.60;;;5.67;;
1682;SDS011;13252;53.596;10.060;2022-08-03T02:03:00;6.07;;;5.37;;
1682;SDS011;13252;53.596;10.060;2022-08-03T02:05:29;7.20;;;5.60;;
1682;SDS011;13252;53.596;10.060;2022-08-03T02:07:57;11.43;;;6.27;;
1682;SDS011;13252;53.596;10.060;2022-08-03T02:10:27;6.80;;;4.90;;
1682;SDS011;13252;53.596;10.060;2022-08-03T02:13:00;8.93;;;5.30;;
1682;SDS011;13252;53.596;10.060;2022-08-03T02:15:29;7.23;;;5.80;;
1682;SDS011;13252;53.596;10.060;2022-08-03T02:18:00;10.13;;;6.07;;
1682;SDS011;13252;53.596;10.060;2022-08-03T02:20:28;9.90;;;5.77;;
1682;SDS011;13252;53.596;10.060;2022-08-03T02:22:58;11.03;;;5.13;;
1682;SDS011;13252;53.596;10.060;2022-08-03T02:25:26;8.03;;;5.60;;
1682;SDS011;13252;53.596;10.060;2022-08-03T02:27:57;6.90;;;5.30;;
1682;SDS011;13252;53.596;10.060;2022-08-03T02:30:27;8.60;;;6.03;;
1682;SDS011;13252;53.596;10.060;2022-08-03T02:32:57;6.53;;;5.23;;
1682;SDS011;13252;53.596;10.060;2022-08-03T02:35:27;13.43;;;6.30;;
1682;SDS011;13252;53.596;10.060;2022-08-03T02:37:57;6.80;;;5.43;;
1682;SDS011;13252;53.596;10.060;2022-08-03T02:40:28;8.23;;;6.80;;
1682;SDS011;13252;53.596;10.060;2022-08-03T02:42:57;18.00;;;14.83;;
1682;SDS011;13252;53.596;10.060;2022-08-03T02:45:26;8.03;;;6.93;;
1682;SDS011;13252;53.596;10.060;2022-08-03T02:47:56;8.07;;;6.00;;
1682;SDS011;13252;53.596;10.060;2022-08-03T02:50:24;10.77;;;7.47;;
1682;SDS011;13252;53.596;10.060;2022-08-03T02:52:54;8.00;;;5.90;;
1682;SDS011;13252;53.596;10.060;2022-08-03T02:55:23;8.73;;;6.07;;
1682;SDS011;13252;53.596;10.060;2022-08-03T02:57:52;7.30;;;6.00;;
1682;SDS011;13252;53.596;10.060;2022-08-03T03:00:21;8.00;;;5.80;;
1682;SDS011;13252;53.596;10.060;2022-08-03T03:02:54;7.07;;;6.17;;
1682;SDS011;13252;53.596;10.060;2022-08-03T03:05:23;21.50;;;19.30;;
1682;SDS011;13252;53.596;10.060;2022-08-03T03:08:13;9.27;;;8.33;;
1682;SDS011;13252;53.596;10.060;2022-08-03T03:10:44;11.80;;;7.00;;
1682;SDS011;13252;53.596;10.060;2022-08-03T03:13:12;8.47;;;6.07;;
1682;SDS011;13252;53.596;10.060;2022-08-03T03:15:42;7.73;;;5.80;;
1682;SDS011;13252;53.596;10.060;2022-08-03T03:18:10;8.83;;;6.37;;
1682;SDS011;13252;53.596;10.060;2022-08-03T03:20:38;9.53;;;6.03;;
1682;SDS011;13252;53.596;10.060;2022-08-03T03:23:07;8.53;;;6.47;;
1682;SDS011;13252;53.596;10.060;2022-08-03T03:25:36;7.23;;;6.20;;
1682;SDS011;13252;53.596;10.060;2022-08-03T03:28:04;9.47;;;6.57;;
1682;SDS011;13252;53.596;10.060;2022-08-03T03:30:32;10.23;;;8.20;;
1682;SDS011;13252;53.596;10.060;2022-08-03T03:33:00;12.37;;;6.97;;
1682;SDS011;13252;53.596;10.060;2022-08-03T03:35:28;10.20;;;6.70;;
1682;SDS011;13252;53.596;10.060;2022-08-03T03:38:04;10.43;;;6.57;;
1682;SDS011;13252;53.596;10.060;2022-08-03T03:40:32;10.10;;;6.90;;
1682;SDS011;13252;53.596;10.060;2022-08-03T03:43:02;9.07;;;7.10;;
1682;SDS011;13252;53.596;10.060;2022-08-03T03:45:33;8.50;;;6.93;;
1682;SDS011;13252;53.596;10.060;2022-08-03T03:48:02;8.23;;;6.70;;
1682;SDS011;13252;53.596;10.060;2022-08-03T03:50:31;8.40;;;7.20;;
1682;SDS011;13252;53.596;10.060;2022-08-03T03:52:59;9.63;;;7.70;;
1682;SDS011;13252;53.596;10.060;2022-08-03T03:55:27;8.03;;;7.00;;
1682;SDS011;13252;53.596;10.060;2022-08-03T03:57:55;8.17;;;7.37;;
1682;SDS011;13252;53.596;10.060;2022-08-03T04:00:24;8.93;;;7.33;;
1682;SDS011;13252;53.596;10.060;2022-08-03T04:02:52;7.10;;;6.40;;
1682;SDS011;13252;53.596;10.060;2022-08-03T04:05:20;8.20;;;6.57;;
1682;SDS011;13252;53.596;10.060;2022-08-03T04:08:11;7.63;;;6.93;;
1682;SDS011;13252;53.596;10.060;2022-08-03T04:11:07;7.27;;;6.37;;
1682;SDS011;13252;53.596;10.060;2022-08-03T04:13:38;8.37;;;7.27;;
1682;SDS011;13252;53.596;10.060;2022-08-03T04:16:11;8.23;;;7.43;;
1682;SDS011;13252;53.596;10.060;2022-08-03T04:18:39;10.40;;;7.03;;
1682;SDS011;13252;53.596;10.060;2022-08-03T04:21:08;11.70;;;6.97;;
1682;SDS011;13252;53.596;10.060;2022-08-03T04:23:38;8.90;;;6.57;;
1682;SDS011;13252;53.596;10.060;2022-08-03T04:26:08;10.30;;;6.77;;
1682;SDS011;13252;53.596;10.060;2022-08-03T04:28:38;8.83;;;7.77;;
1682;SDS011;13252;53.596;10.060;2022-08-03T04:31:06;8.40;;;7.50;;
1682;SDS011;13252;53.596;10.060;2022-08-03T04:33:36;9.77;;;7.70;;
1682;SDS011;13252;53.596;10.060;2022-08-03T04:36:06;19.70;;;7.57;;
1682;SDS011;13252;53.596;10.060;2022-08-03T04:38:35;10.80;;;6.60;;
1682;SDS011;13252;53.596;10.060;2022-08-03T04:41:04;15.07;;;6.90;;
1682;SDS011;13252;53.596;10.060;2022-08-03T04:43:32;9.20;;;6.80;;
1682;SDS011;13252;53.596;10.060;2022-08-03T04:46:00;11.23;;;7.87;;
1682;SDS011;13252;53.596;10.060;2022-08-03T04:48:28;10.30;;;8.20;;
1682;SDS011;13252;53.596;10.060;2022-08-03T04:50:57;15.47;;;8.50;;
1682;SDS011;13252;53.596;10.060;2022-08-03T04:53:26;10.03;;;7.60;;
1682;SDS011;13252;53.596;10.060;2022-08-03T04:55:53;13.13;;;8.23;;
1682;SDS011;13252;53.596;10.060;2022-08-03T04:58:26;10.47;;;7.63;;
1682;SDS011;13252;53.596;10.060;2022-08-03T05:00:54;8.70;;;7.60;;
1682;SDS011;13252;53.596;10.060;2022-08-03T05:03:21;9.93;;;6.90;;
1682;SDS011;13252;53.596;10.060;2022-08-03T05:05:50;12.30;;;8.63;;
1682;SDS011;13252;53.596;10.060;2022-08-03T05:08:28;9.17;;;7.87;;
1682;SDS011;13252;53.596;10.060;2022-08-03T05:10:56;41.87;;;9.00;;
1682;SDS011;13252;53.596;10.060;2022-08-03T05:13:24;25.90;;;8.60;;
1682;SDS011;13252;53.596;10.060;2022-08-03T05:15:52;11.53;;;8.33;;
1682;SDS011;13252;53.596;10.060;2022-08-03T05:18:20;12.30;;;8.50;;
1682;SDS011;13252;53.596;10.060;2022-08-03T05:20:48;12.23;;;8.30;;
1682;SDS011;13252;53.596;10.060;2022-08-03T05:23:16;10.83;;;7.60;;
1682;SDS011;13252;53.596;10.060;2022-08-03T05:25:45;9.70;;;7.63;;
1682;SDS011;13252;53.596;10.060;2022-08-03T05:28:15;12.77;;;7.70;;
1682;SDS011;13252;53.596;10.060;2022-08-03T05:30:43;30.00;;;8.33;;
1682;SDS011;13252;53.596;10.060;2022-08-03T05:33:11;10.67;;;7.40;;
1682;SDS011;13252;53.596;10.060;2022-08-03T05:35:40;13.47;;;7.10;;
1682;SDS011;13252;53.596;10.060;2022-08-03T05:38:28;7.53;;;6.83;;
1682;SDS011;13252;53.596;10.060;2022-08-03T05:41:02;13.10;;;7.40;;
1682;SDS011;13252;53.596;10.060;2022-08-03T05:43:49;9.90;;;7.13;;
1682;SDS011;13252;53.596;10.060;2022-08-03T05:46:17;8.83;;;8.00;;
1682;SDS011;13252;53.596;10.060;2022-08-03T05:48:54;13.37;;;7.37;;
1682;SDS011;13252;53.596;10.060;2022-08-03T05:51:22;8.20;;;6.20;;
1682;SDS011;13252;53.596;10.060;2022-08-03T05:53:49;13.37;;;7.30;;
1682;SDS011;13252;53.596;10.060;2022-08-03T05:56:21;8.57;;;6.83;;
1682;SDS011;13252;53.596;10.060;2022-08-03T05:58:50;11.93;;;6.63;;
1682;SDS011;13252;53.596;10.060;2022-08-03T06:01:19;11.43;;;7.23;;
1682;SDS011;13252;53.596;10.060;2022-08-03T06:03:48;12.80;;;7.90;;
1682;SDS011;13252;53.596;10.060;2022-08-03T06:06:17;16.13;;;7.50;;
1682;SDS011;13252;53.596;10.060;2022-08-03T06:08:44;17.13;;;7.63;;
1682;SDS011;13252;53.596;10.060;2022-08-03T06:11:14;10.10;;;6.53;;
1682;SDS011;13252;53.596;10.060;2022-08-03T06:13:43;11.10;;;6.50;;
1682;SDS011;13252;53.596;10.060;2022-08-03T06:16:11;13.63;;;6.97;;
1682;SDS011;13252;53.596;10.060;2022-08-03T06:18:39;9.80;;;6.63;;
1682;SDS011;13252;53.596;10.060;2022-08-03T06:21:06;10.27;;;6.47;;
1682;SDS011;13252;53.596;10.060;2022-08-03T06:23:41;10.27;;;6.20;;
1682;SDS011;13252;53.596;10.060;2022-08-03T06:26:23;16.10;;;6.20;;
1682;SDS011;13252;53.596;10.060;2022-08-03T06:28:54;9.97;;;5.57;;
1682;SDS011;13252;53.596;10.060;2022-08-03T06:31:23;14.10;;;6.13;;
1682;SDS011;13252;53.596;10.060;2022-08-03T06:33:59;7.47;;;6.30;;
1682;SDS011;13252;53.596;10.060;2022-08-03T06:36:51;10.47;;;6.23;;
1682;SDS011;13252;53.596;10.060;2022-08-03T06:39:26;10.13;;;6.10;;
1682;SDS011;13252;53.596;10.060;2022-08-03T06:41:54;14.37;;;6.47;;
1682;SDS011;13252;53.596;10.060;2022-08-03T06:44:23;11.07;;;6.40;;
1682;SDS011;13252;53.596;10.060;2022-08-03T06:46:51;10.50;;;5.30;;
1682;SDS011;13252;53.596;10.060;2022-08-03T06:49:19;12.03;;;7.00;;
1682;SDS011;13252;53.596;10.060;2022-08-03T06:51:47;14.90;;;6.23;;
1682;SDS011;13252;53.596;10.060;2022-08-03T06:54:32;11.43;;;5.87;;
1682;SDS011;13252;53.596;10.060;2022-08-03T06:57:01;10.73;;;5.70;;
1682;SDS011;13252;53.596;10.060;2022-08-03T06:59:31;13.77;;;5.67;;
1682;SDS011;13252;53.596;10.060;2022-08-03T07:02:19;13.33;;;5.53;;
1682;SDS011;13252;53.596;10.060;2022-08-03T07:04:47;9.77;;;6.07;;
1682;SDS011;13252;53.596;10.060;2022-08-03T07:07:15;9.70;;;5.67;;
1682;SDS011;13252;53.596;10.060;2022-08-03T07:09:44;13.03;;;5.50;;
1682;SDS011;13252;53.596;10.060;2022-08-03T07:12:23;11.73;;;5.17;;
1682;SDS011;13252;53.596;10.060;2022-08-03T07:14:54;11.70;;;4.20;;
1682;SDS011;13252;53.596;10.060;2022-08-03T07:17:28;9.43;;;3.87;;
1682;SDS011;13252;53.596;10.060;2022-08-03T07:19:57;8.60;;;3.80;;
1682;SDS011;13252;53.596;10.060;2022-08-03T07:22:25;7.53;;;4.33;;
1682;SDS011;13252;53.596;10.060;2022-08-03T07:24:54;11.87;;;3.70;;
1682;SDS011;13252;53.596;10.060;2022-08-03T07:27:22;7.00;;;3.30;;
1682;SDS011;13252;53.596;10.060;2022-08-03T07:29:53;10.70;;;3.87;;
1682;SDS011;13252;53.596;10.060;2022-08-03T07:32:21;7.43;;;4.30;;
1682;SDS011;13252;53.596;10.060;2022-08-03T07:34:49;9.63;;;4.43;;
1682;SDS011;13252;53.596;10.060;2022-08-03T07:37:23;11.07;;;3.93;;
1682;SDS011;13252;53.596;10.060;2022-08-03T07:39:51;6.70;;;3.90;;
1682;SDS011;13252;53.596;10.060;2022-08-03T07:42:18;7.93;;;4.10;;
1682;SDS011;13252;53.596;10.060;2022-08-03T07:44:46;11.43;;;4.30;;
1682;SDS011;13252;53.596;10.060;2022-08-03T07:47:18;49.23;;;5.50;;
1682;SDS011;13252;53.596;10.060;2022-08-03T07:49:48;18.57;;;3.93;;
1682;SDS011;13252;53.596;10.060;2022-08-03T07:52:16;10.00;;;3.93;;
1682;SDS011;13252;53.596;10.060;2022-08-03T07:55:01;5.30;;;3.40;;
1682;SDS011;13252;53.596;10.060;2022-08-03T07:57:29;9.73;;;3.67;;
1682;SDS011;13252;53.596;10.060;2022-08-03T07:59:57;20.30;;;3.80;;
1682;SDS011;13252;53.596;10.060;2022-08-03T08:02:38;5.90;;;3.50;;
1682;SDS011;13252;53.596;10.060;2022-08-03T08:05:06;6.00;;;3.17;;
1682;SDS011;13252;53.596;10.060;2022-08-03T08:07:36;6.03;;;2.97;;
1682;SDS011;13252;53.596;10.060;2022-08-03T08:10:04;8.27;;;3.00;;
1682;SDS011;13252;53.596;10.060;2022-08-03T08:12:33;4.10;;;3.10;;
1682;SDS011;13252;53.596;10.060;2022-08-03T08:15:01;5.97;;;3.30;;
1682;SDS011;13252;53.596;10.060;2022-08-03T08:17:29;9.87;;;3.67;;
1682;SDS011;13252;53.596;10.060;2022-08-03T08:19:58;40.60;;;4.30;;
1682;SDS011;13252;53.596;10.060;2022-08-03T08:22:26;6.13;;;3.17;;
1682;SDS011;13252;53.596;10.060;2022-08-03T08:24:56;6.27;;;2.80;;
1682;SDS011;13252;53.596;10.060;2022-08-03T08:27:24;16.23;;;2.90;;
1682;SDS011;13252;53.596;10.060;2022-08-03T08:29:52;8.90;;;2.40;;
1682;SDS011;13252;53.596;10.060;2022-08-03T08:32:27;7.37;;;2.57;;
1682;SDS011;13252;53.596;10.060;2022-08-03T08:34:55;5.20;;;2.10;;
1682;SDS011;13252;53.596;10.060;2022-08-03T08:37:24;8.10;;;2.30;;
1682;SDS011;13252;53.596;10.060;2022-08-03T08:39:52;8.97;;;2.40;;
1682;SDS011;13252;53.596;10.060;2022-08-03T08:42:20;12.50;;;2.70;;
1682;SDS011;13252;53.596;10.060;2022-08-03T08:44:48;6.30;;;1.80;;
1682;SDS011;13252;53.596;10.060;2022-08-03T08:47:16;5.93;;;2.10;;
1682;SDS011;13252;53.596;10.060;2022-08-03T08:49:44;3.87;;;2.03;;
1682;SDS011;13252;53.596;10.060;2022-08-03T08:52:34;5.70;;;1.93;;
1682;SDS011;13252;53.596;10.060;2022-08-03T08:55:03;7.73;;;2.50;;
1682;SDS011;13252;53.596;10.060;2022-08-03T08:57:34;5.17;;;2.27;;
1682;SDS011;13252;53.596;10.060;2022-08-03T09:00:10;5.77;;;2.33;;
1682;SDS011;13252;53.596;10.060;2022-08-03T09:02:40;9.77;;;2.80;;
1682;SDS011;13252;53.596;10.060;2022-08-03T09:05:09;8.10;;;2.53;;
1682;SDS011;13252;53.596;10.060;2022-08-03T09:07:39;7.20;;;2.73;;
1682;SDS011;13252;53.596;10.060;2022-08-03T09:10:07;9.80;;;2.77;;
1682;SDS011;13252;53.596;10.060;2022-08-03T09:12:40;6.43;;;2.80;;
1682;SDS011;13252;53.596;10.060;2022-08-03T09:15:18;7.73;;;2.63;;
1682;SDS011;13252;53.596;10.060;2022-08-03T09:17:50;10.57;;;2.73;;
1682;SDS011;13252;53.596;10.060;2022-08-03T09:20:19;5.67;;;2.90;;
1682;SDS011;13252;53.596;10.060;2022-08-03T09:22:57;8.90;;;2.53;;
1682;SDS011;13252;53.596;10.060;2022-08-03T09:25:26;11.67;;;2.53;;
1682;SDS011;13252;53.596;10.060;2022-08-03T09:28:04;6.70;;;2.10;;
1682;SDS011;13252;53.596;10.060;2022-08-03T09:30:33;36.03;;;4.33;;
1682;SDS011;13252;53.596;10.060;2022-08-03T09:33:02;9.67;;;2.60;;
1682;SDS011;13252;53.596;10.060;2022-08-03T09:35:31;7.00;;;1.73;;
1682;SDS011;13252;53.596;10.060;2022-08-03T09:38:20;7.17;;;2.47;;
1682;SDS011;13252;53.596;10.060;2022-08-03T09:40:51;9.90;;;2.93;;
1682;SDS011;13252;53.596;10.060;2022-08-03T09:43:25;7.00;;;3.23;;
1682;SDS011;13252;53.596;10.060;2022-08-03T09:46:01;6.47;;;2.27;;
1682;SDS011;13252;53.596;10.060;2022-08-03T09:48:29;4.67;;;2.10;;
1682;SDS011;13252;53.596;10.060;2022-08-03T09:51:00;8.23;;;2.40;;
1682;SDS011;13252;53.596;10.060;2022-08-03T09:53:43;6.40;;;2.20;;
1682;SDS011;13252;53.596;10.060;2022-08-03T09:56:36;5.93;;;2.30;;
1682;SDS011;13252;53.596;10.060;2022-08-03T09:59:05;9.60;;;2.60;;
1682;SDS011;13252;53.596;10.060;2022-08-03T10:01:33;10.57;;;2.50;;
1682;SDS011;13252;53.596;10.060;2022-08-03T10:04:02;5.00;;;2.00;;
1682;SDS011;13252;53.596;10.060;2022-08-03T10:06:30;6.00;;;2.40;;
1682;SDS011;13252;53.596;10.060;2022-08-03T10:09:07;5.97;;;2.20;;
1682;SDS011;13252;53.596;10.060;2022-08-03T10:11:35;7.57;;;2.10;;
1682;SDS011;13252;53.596;10.060;2022-08-03T10:14:09;11.50;;;2.83;;
1682;SDS011;13252;53.596;10.060;2022-08-03T10:16:44;5.97;;;2.00;;
1682;SDS011;13252;53.596;10.060;2022-08-03T10:19:12;6.33;;;2.20;;
1682;SDS011;13252;53.596;10.060;2022-08-03T10:21:41;5.50;;;2.10;;
1682;SDS011;13252;53.596;10.060;2022-08-03T10:24:15;6.83;;;2.07;;
1682;SDS011;13252;53.596;10.060;2022-08-03T10:26:44;7.37;;;2.37;;
1682;SDS011;13252;53.596;10.060;2022-08-03T10:29:17;6.37;;;1.83;;
1682;SDS011;13252;53.596;10.060;2022-08-03T10:31:47;11.23;;;2.27;;
1682;SDS011;13252;53.596;10.060;2022-08-03T10:34:25;12.33;;;3.00;;
1682;SDS011;13252;53.596;10.060;2022-08-03T10:36:55;6.00;;;1.80;;
1682;SDS011;13252;53.596;10.060;2022-08-03T10:39:28;13.30;;;2.93;;
1682;SDS011;13252;53.596;10.060;2022-08-03T10:41:56;5.13;;;2.13;;
1682;SDS011;13252;53.596;10.060;2022-08-03T10:44:29;7.50;;;2.30;;
1682;SDS011;13252;53.596;10.060;2022-08-03T10:46:59;5.07;;;1.80;;
1682;SDS011;13252;53.596;10.060;2022-08-03T10:49:27;12.93;;;2.67;;
1682;SDS011;13252;53.596;10.060;2022-08-03T10:52:00;7.60;;;1.97;;
1682;SDS011;13252;53.596;10.060;2022-08-03T10:54:41;8.03;;;2.07;;
1682;SDS011;13252;53.596;10.060;2022-08-03T11:00:26;7.67;;;2.13;;
1682;SDS011;13252;53.596;10.060;2022-08-03T11:03:08;9.53;;;1.93;;
1682;SDS011;13252;53.596;10.060;2022-08-03T11:05:40;3.20;;;1.40;;
1682;SDS011;13252;53.596;10.060;2022-08-03T11:08:22;4.73;;;2.10;;
1682;SDS011;13252;53.596;10.060;2022-08-03T11:10:53;6.93;;;2.00;;
1682;SDS011;13252;53.596;10.060;2022-08-03T11:13:22;11.40;;;1.93;;
1682;SDS011;13252;53.596;10.060;2022-08-03T11:15:52;7.53;;;2.00;;
1682;SDS011;13252;53.596;10.060;2022-08-03T11:18:28;7.30;;;2.27;;
1682;SDS011;13252;53.596;10.060;2022-08-03T11:20:56;6.23;;;2.50;;
1682;SDS011;13252;53.596;10.060;2022-08-03T11:23:41;12.73;;;2.70;;
1682;SDS011;13252;53.596;10.060;2022-08-03T11:26:31;11.10;;;2.20;;
1682;SDS011;13252;53.596;10.060;2022-08-03T11:31:54;9.47;;;2.10;;
1682;SDS011;13252;53.596;10.060;2022-08-03T11:34:22;7.27;;;2.33;;
1682;SDS011;13252;53.596;10.060;2022-08-03T11:39:56;6.50;;;2.00;;
1682;SDS011;13252;53.596;10.060;2022-08-03T11:42:41;6.90;;;1.80;;
1682;SDS011;13252;53.596;10.060;2022-08-03T11:45:15;8.20;;;2.20;;
1682;SDS011;13252;53.596;10.060;2022-08-03T11:47:45;7.70;;;2.10;;
1682;SDS011;13252;53.596;10.060;2022-08-03T11:50:16;8.07;;;2.43;;
1682;SDS011;13252;53.596;10.060;2022-08-03T11:52:46;10.90;;;2.90;;
1682;SDS011;13252;53.596;10.060;2022-08-03T11:55:17;5.43;;;1.93;;
1682;SDS011;13252;53.596;10.060;2022-08-03T11:57:48;4.73;;;2.00;;
1682;SDS011;13252;53.596;10.060;2022-08-03T12:00:36;9.17;;;2.03;;
1682;SDS011;13252;53.596;10.060;2022-08-03T12:03:05;5.20;;;2.40;;
1682;SDS011;13252;53.596;10.060;2022-08-03T12:05:42;11.40;;;2.10;;
1682;SDS011;13252;53.596;10.060;2022-08-03T12:08:18;11.13;;;2.10;;
1682;SDS011;13252;53.596;10.060;2022-08-03T12:10:57;10.43;;;2.40;;
1682;SDS011;13252;53.596;10.060;2022-08-03T12:13:27;8.93;;;1.90;;
1682;SDS011;13252;53.596;10.060;2022-08-03T12:16:23;10.57;;;2.50;;
1682;SDS011;13252;53.596;10.060;2022-08-03T12:18:54;6.87;;;2.27;;
1682;SDS011;13252;53.596;10.060;2022-08-03T12:21:23;7.23;;;2.00;;
1682;SDS011;13252;53.596;10.060;2022-08-03T12:23:54;8.73;;;1.97;;
1682;SDS011;13252;53.596;10.060;2022-08-03T12:26:24;8.30;;;2.53;;
1682;SDS011;13252;53.596;10.060;2022-08-03T12:28:54;9.63;;;2.77;;
1682;SDS011;13252;53.596;10.060;2022-08-03T12:31:21;6.40;;;2.27;;
1682;SDS011;13252;53.596;10.060;2022-08-03T12:33:59;10.57;;;2.10;;
1682;SDS011;13252;53.596;10.060;2022-08-03T12:36:30;5.70;;;1.93;;
1682;SDS011;13252;53.596;10.060;2022-08-03T12:38:59;5.70;;;1.97;;
1682;SDS011;13252;53.596;10.060;2022-08-03T12:41:31;5.73;;;2.33;;
1682;SDS011;13252;53.596;10.060;2022-08-03T12:44:02;11.23;;;2.40;;
1682;SDS011;13252;53.596;10.060;2022-08-03T12:46:31;10.20;;;2.10;;
1682;SDS011;13252;53.596;10.060;2022-08-03T12:49:04;15.47;;;2.10;;
1682;SDS011;13252;53.596;10.060;2022-08-03T12:51:34;7.13;;;2.53;;
1682;SDS011;13252;53.596;10.060;2022-08-03T12:54:03;8.10;;;2.07;;
1682;SDS011;13252;53.596;10.060;2022-08-03T12:56:32;5.37;;;2.37;;
1682;SDS011;13252;53.596;10.060;2022-08-03T12:59:04;8.70;;;2.00;;
1682;SDS011;13252;53.596;10.060;2022-08-03T13:02:01;7.97;;;2.33;;
1682;SDS011;13252;53.596;10.060;2022-08-03T13:04:34;8.10;;;2.20;;
1682;SDS011;13252;53.596;10.060;2022-08-03T13:07:04;8.40;;;2.40;;
1682;SDS011;13252;53.596;10.060;2022-08-03T13:09:43;7.50;;;1.60;;
1682;SDS011;13252;53.596;10.060;2022-08-03T13:12:13;11.13;;;2.10;;
1682;SDS011;13252;53.596;10.060;2022-08-03T13:14:43;6.53;;;2.20;;
1682;SDS011;13252;53.596;10.060;2022-08-03T13:17:11;6.50;;;1.90;;
1682;SDS011;13252;53.596;10.060;2022-08-03T13:19:42;7.30;;;2.03;;
1682;SDS011;13252;53.596;10.060;2022-08-03T13:22:11;8.77;;;2.47;;
1682;SDS011;13252;53.596;10.060;2022-08-03T13:24:41;8.27;;;2.33;;
1682;SDS011;13252;53.596;10.060;2022-08-03T13:27:10;10.20;;;2.53;;
1682;SDS011;13252;53.596;10.060;2022-08-03T13:29:59;8.60;;;2.57;;
1682;SDS011;13252;53.596;10.060;2022-08-03T13:32:27;10.10;;;2.80;;
1682;SDS011;13252;53.596;10.060;2022-08-03T13:34:55;7.13;;;2.07;;
1682;SDS011;13252;53.596;10.060;2022-08-03T13:37:23;6.70;;;2.40;;
1682;SDS011;13252;53.596;10.060;2022-08-03T13:39:51;25.10;;;2.70;;
1682;SDS011;13252;53.596;10.060;2022-08-03T13:42:25;11.13;;;1.70;;
1682;SDS011;13252;53.596;10.060;2022-08-03T13:44:53;13.47;;;2.40;;
1682;SDS011;13252;53.596;10.060;2022-08-03T13:47:23;12.90;;;2.73;;
1682;SDS011;13252;53.596;10.060;2022-08-03T13:49:51;8.97;;;1.80;;
1682;SDS011;13252;53.596;10.060;2022-08-03T13:52:28;5.57;;;2.13;;
1682;SDS011;13252;53.596;10.060;2022-08-03T13:58:01;7.63;;;2.43;;
1682;SDS011;13252;53.596;10.060;2022-08-03T14:00:33;8.13;;;2.30;;
1682;SDS011;13252;53.596;10.060;2022-08-03T14:03:02;5.90;;;2.33;;
1682;SDS011;13252;53.596;10.060;2022-08-03T14:05:39;11.00;;;2.03;;
1682;SDS011;13252;53.596;10.060;2022-08-03T14:08:07;14.87;;;2.27;;
1682;SDS011;13252;53.596;10.060;2022-08-03T14:10:35;8.80;;;2.70;;
1682;SDS011;13252;53.596;10.060;2022-08-03T14:13:04;5.77;;;2.30;;
1682;SDS011;13252;53.596;10.060;2022-08-03T14:15:32;10.43;;;2.03;;
1682;SDS011;13252;53.596;10.060;2022-08-03T14:18:05;9.73;;;3.50;;
1682;SDS011;13252;53.596;10.060;2022-08-03T14:20:41;8.03;;;2.47;;
1682;SDS011;13252;53.596;10.060;2022-08-03T14:23:15;11.00;;;2.03;;
1682;SDS011;13252;53.596;10.060;2022-08-03T14:25:45;6.67;;;2.27;;
1682;SDS011;13252;53.596;10.060;2022-08-03T14:28:18;8.60;;;2.53;;
1682;SDS011;13252;53.596;10.060;2022-08-03T14:30:48;10.97;;;2.83;;
1682;SDS011;13252;53.596;10.060;2022-08-03T14:33:17;15.03;;;2.47;;
1682;SDS011;13252;53.596;10.060;2022-08-03T14:35:45;5.70;;;2.17;;
1682;SDS011;13252;53.596;10.060;2022-08-03T14:38:13;5.67;;;2.30;;
1682;SDS011;13252;53.596;10.060;2022-08-03T14:40:41;6.40;;;2.07;;
1682;SDS011;13252;53.596;10.060;2022-08-03T14:43:09;5.70;;;2.20;;
1682;SDS011;13252;53.596;10.060;2022-08-03T14:45:37;6.60;;;2.40;;
1682;SDS011;13252;53.596;10.060;2022-08-03T14:48:04;8.40;;;2.20;;
1682;SDS011;13252;53.596;10.060;2022-08-03T14:50:53;8.57;;;2.50;;
1682;SDS011;13252;53.596;10.060;2022-08-03T14:53:22;10.93;;;2.10;;
1682;SDS011;13252;53.596;10.060;2022-08-03T14:55:49;10.10;;;1.93;;
1682;SDS011;13252;53.596;10.060;2022-08-03T14:58:18;7.43;;;2.10;;
1682;SDS011;13252;53.596;10.060;2022-08-03T15:00:47;8.03;;;2.33;;
1682;SDS011;13252;53.596;10.060;2022-08-03T15:03:15;10.93;;;2.20;;
1682;SDS011;13252;53.596;10.060;2022-08-03T15:05:45;6.87;;;2.20;;
1682;SDS011;13252;53.596;10.060;2022-08-03T15:08:14;11.80;;;2.37;;
1682;SDS011;13252;53.596;10.060;2022-08-03T15:10:42;6.40;;;2.20;;
1682;SDS011;13252;53.596;10.060;2022-08-03T15:13:11;8.70;;;2.20;;
1682;SDS011;13252;53.596;10.060;2022-08-03T15:15:41;7.63;;;2.17;;
1682;SDS011;13252;53.596;10.060;2022-08-03T15:18:09;7.80;;;2.17;;
1682;SDS011;13252;53.596;10.060;2022-08-03T15:20:36;11.20;;;3.57;;